createdAt,value
2022-08-04T00:02:13.406Z,23.09
2022-08-04T00:04:47.497Z,23.06
2022-08-04T00:07:21.750Z,23.03
2022-08-04T00:10:09.239Z,22.98
2022-08-04T00:12:45.073Z,22.95
2022-08-04T00:15:15.040Z,22.91
2022-08-04T00:17:54.777Z,22.88
2022-08-04T00:20:21.866Z,22.80
2022-08-04T00:22:49.403Z,22.75
2022-08-04T00:25:15.938Z,22.70
2022-08-04T00:27:43.603Z,22.66
2022-08-04T00:30:10.377Z,22.59
2022-08-04T00:32:39.547Z,22.55
2022-08-04T00:35:08.260Z,22.51
2022-08-04T00:37:37.121Z,22.47
2022-08-04T00:40:13.927Z,22.46
2022-08-04T00:43:03.163Z,22.42
2022-08-04T00:46:15.694Z,22.42
2022-08-04T00:48:44.400Z,22.40
2022-08-04T00:51:13.545Z,22.38
2022-08-04T00:53:58.026Z,22.40
2022-08-04T00:56:56.713Z,22.39
2022-08-04T00:59:33.928Z,22.36
2022-08-04T01:02:14.129Z,22.34
2022-08-04T01:04:43.284Z,22.34
2022-08-04T01:07:37.107Z,22.33
2022-08-04T01:13:22.526Z,22.26
2022-08-04T01:15:56.479Z,22.24
2022-08-04T01:18:39.930Z,22.24
2022-08-04T01:21:42.638Z,22.19
2022-08-04T01:24:35.321Z,22.11
2022-08-04T01:27:43.760Z,22.06
2022-08-04T01:30:10.428Z,21.99
2022-08-04T01:32:39.101Z,21.98
2022-08-04T01:35:15.299Z,21.96
2022-08-04T01:38:18.322Z,21.90
2022-08-04T01:40:53.026Z,21.79
2022-08-04T01:43:20.484Z,21.74
2022-08-04T01:45:51.397Z,21.70
2022-08-04T01:48:24.930Z,21.65
2022-08-04T01:50:53.792Z,21.61
2022-08-04T01:53:21.813Z,21.58
2022-08-04T01:55:54.139Z,21.53
2022-08-04T01:58:23.873Z,21.52
2022-08-04T02:00:57.969Z,21.49
2022-08-04T02:03:24.496Z,21.46
2022-08-04T02:06:36.052Z,21.47
2022-08-04T02:09:20.876Z,21.43
2022-08-04T02:12:26.024Z,21.40
2022-08-04T02:15:27.727Z,21.35
2022-08-04T02:18:02.718Z,21.29
2022-08-04T02:20:37.203Z,21.25
2022-08-04T02:23:07.884Z,21.21
2022-08-04T02:25:43.754Z,21.18
2022-08-04T02:28:22.381Z,21.14
2022-08-04T02:31:06.787Z,21.13
2022-08-04T02:33:43.182Z,21.10
2022-08-04T02:36:14.156Z,21.06
2022-08-04T02:38:49.714Z,21.05
2022-08-04T02:41:18.024Z,21.04
2022-08-04T02:43:51.703Z,21.04
2022-08-04T02:46:21.261Z,21.04
2022-08-04T02:48:49.783Z,21.04
2022-08-04T02:51:20.055Z,21.03
2022-08-04T02:53:49.506Z,21.03
2022-08-04T02:56:20.208Z,21.04
2022-08-04T02:58:51.666Z,21.04
2022-08-04T03:01:18.373Z,21.03
2022-08-04T03:04:06.171Z,21.03
2022-08-04T03:06:44.413Z,20.98
2022-08-04T03:09:28.730Z,20.96
2022-08-04T03:12:13.936Z,20.94
2022-08-04T03:15:34.995Z,20.93
2022-08-04T03:18:39.117Z,20.92
2022-08-04T03:21:29.955Z,20.92
2022-08-04T03:24:19.620Z,20.92
2022-08-04T03:27:00.092Z,20.90
2022-08-04T03:29:59.010Z,20.88
2022-08-04T03:32:43.872Z,20.85
2022-08-04T03:35:40.027Z,20.79
2022-08-04T03:38:31.284Z,20.76
2022-08-04T03:41:06.513Z,20.71
2022-08-04T03:43:56.838Z,20.66
2022-08-04T03:46:45.045Z,20.61
2022-08-04T03:49:47.979Z,20.54
2022-08-04T03:52:48.460Z,20.47
2022-08-04T03:55:36.723Z,20.41
2022-08-04T03:58:18.279Z,20.41
2022-08-04T04:01:02.765Z,20.40
2022-08-04T04:03:41.362Z,20.38
2022-08-04T04:06:29.580Z,20.41
2022-08-04T04:09:20.696Z,20.41
2022-08-04T04:11:57.682Z,20.40
2022-08-04T04:14:46.091Z,20.40
2022-08-04T04:17:45.509Z,20.39
2022-08-04T04:20:25.499Z,20.38
2022-08-04T04:23:25.669Z,20.38
2022-08-04T04:26:06.470Z,20.34
2022-08-04T04:28:43.472Z,20.33
2022-08-04T04:31:46.160Z,20.32
2022-08-04T04:34:48.485Z,20.31
2022-08-04T04:37:22.005Z,20.30
2022-08-04T04:40:32.764Z,20.33
2022-08-04T04:43:17.464Z,20.35
2022-08-04T04:46:10.383Z,20.36
2022-08-04T04:48:53.209Z,20.37
2022-08-04T04:51:31.532Z,20.41
2022-08-04T04:54:16.011Z,20.44
2022-08-04T04:57:05.203Z,20.46
2022-08-04T04:59:35.564Z,20.49
2022-08-04T05:02:23.368Z,20.53
2022-08-04T05:05:26.780Z,20.54
2022-08-04T05:08:43.182Z,20.58
2022-08-04T05:11:33.274Z,20.55
2022-08-04T05:14:44.455Z,20.56
2022-08-04T05:17:53.991Z,20.56
2022-08-04T05:20:25.748Z,20.57
2022-08-04T05:23:02.015Z,20.58
2022-08-04T05:25:37.545Z,20.62
2022-08-04T05:28:10.772Z,20.64
2022-08-04T05:30:48.400Z,20.70
2022-08-04T05:33:19.092Z,20.73
2022-08-04T05:36:17.854Z,20.78
2022-08-04T05:38:39.403Z,20.82
2022-08-04T05:43:35.533Z,20.95
2022-08-04T05:46:02.892Z,21.02
2022-08-04T05:48:32.290Z,21.10
2022-08-04T05:51:01.202Z,21.20
2022-08-04T05:53:29.150Z,21.30
2022-08-04T05:55:58.750Z,21.40
2022-08-04T05:58:29.429Z,21.49
2022-08-04T06:00:56.810Z,21.60
2022-08-04T06:03:24.983Z,21.72
2022-08-04T06:05:52.101Z,21.83
2022-08-04T06:08:19.453Z,21.95
2022-08-04T06:10:48.186Z,22.05
2022-08-04T06:13:47.883Z,22.15
2022-08-04T06:16:08.221Z,22.23
2022-08-04T06:19:59.982Z,22.32
2022-08-04T06:21:38.733Z,22.43
2022-08-04T06:24:10.597Z,22.53
2022-08-04T06:26:38.503Z,22.62
2022-08-04T06:29:05.540Z,22.72
2022-08-04T06:32:31.125Z,22.84
2022-08-04T06:34:32.524Z,22.97
2022-08-04T06:36:59.607Z,23.10
2022-08-04T06:39:28.254Z,23.23
2022-08-04T06:42:17.178Z,23.38
2022-08-04T06:44:44.309Z,23.54
2022-08-04T06:47:13.898Z,23.68
2022-08-04T06:51:28.024Z,23.84
2022-08-04T06:52:30.948Z,23.99
2022-08-04T06:54:58.997Z,24.12
2022-08-04T06:57:27.872Z,24.26
2022-08-04T07:00:00.679Z,24.40
2022-08-04T07:02:31.361Z,24.52
2022-08-04T07:04:58.120Z,24.63
2022-08-04T07:07:33.955Z,24.75
2022-08-04T07:10:04.256Z,24.88
2022-08-04T07:12:32.398Z,25.00
2022-08-04T07:14:59.424Z,25.14
2022-08-04T07:17:28.836Z,25.26
2022-08-04T07:20:01.854Z,25.36
2022-08-04T07:22:28.688Z,25.47
2022-08-04T07:24:57.069Z,25.59
2022-08-04T07:27:48.324Z,25.70
2022-08-04T07:30:11.524Z,25.79
2022-08-04T07:32:38.665Z,25.86
2022-08-04T07:35:07.148Z,25.96
2022-08-04T07:37:40.158Z,26.03
2022-08-04T07:40:07.656Z,26.12
2022-08-04T07:42:34.955Z,26.22
2022-08-04T07:45:01.548Z,26.31
2022-08-04T07:47:28.391Z,26.38
2022-08-04T07:49:57.697Z,26.45
2022-08-04T07:52:26.384Z,26.56
2022-08-04T07:54:54.502Z,26.68
2022-08-04T07:57:40.235Z,26.82
2022-08-04T08:00:08.697Z,26.93
2022-08-04T08:02:36.468Z,27.00
2022-08-04T08:05:03.241Z,27.12
2022-08-04T08:07:29.740Z,27.22
2022-08-04T08:09:56.466Z,27.32
2022-08-04T08:12:37.745Z,27.42
2022-08-04T08:15:13.303Z,27.53
2022-08-04T08:17:58.664Z,27.65
2022-08-04T08:20:28.872Z,27.77
2022-08-04T08:22:56.563Z,27.86
2022-08-04T08:25:23.331Z,27.99
2022-08-04T08:27:56.465Z,28.14
2022-08-04T08:30:24.265Z,28.28
2022-08-04T08:32:51.026Z,28.41
2022-08-04T08:35:18.348Z,28.52
2022-08-04T08:37:56.431Z,28.68
2022-08-04T08:41:07.291Z,28.81
2022-08-04T08:44:06.105Z,28.95
2022-08-04T08:47:01.401Z,29.12
2022-08-04T08:50:02.979Z,29.16
2022-08-04T08:52:57.703Z,29.26
2022-08-04T08:55:42.653Z,29.38
2022-08-04T08:58:35.735Z,29.59
2022-08-04T09:01:12.207Z,29.68
2022-08-04T09:04:03.500Z,29.84
2022-08-04T09:06:42.700Z,30.01
2022-08-04T09:09:22.168Z,30.20
2022-08-04T09:12:15.879Z,30.29
2022-08-04T09:15:04.196Z,30.48
2022-08-04T09:17:40.787Z,30.62
2022-08-04T09:20:36.999Z,30.82
2022-08-04T09:23:31.413Z,30.97
2022-08-04T09:26:16.714Z,31.18
2022-08-04T09:29:03.375Z,31.36
2022-08-04T09:31:51.624Z,31.33
2022-08-04T09:34:43.996Z,31.51
2022-08-04T09:37:17.021Z,31.70
2022-08-04T09:40:01.771Z,31.79
2022-08-04T09:42:48.219Z,32.00
2022-08-04T09:45:42.400Z,32.21
2022-08-04T09:48:15.190Z,32.33
2022-08-04T09:50:49.765Z,32.50
2022-08-04T09:53:35.625Z,32.68
2022-08-04T09:56:03.498Z,32.82
2022-08-04T09:58:50.517Z,32.94
2022-08-04T10:01:23.420Z,33.17
2022-08-04T10:03:54.955Z,33.44
2022-08-04T10:06:49.099Z,33.57
2022-08-04T10:09:27.907Z,33.60
2022-08-04T10:11:57.340Z,33.54
2022-08-04T10:14:49.098Z,33.53
2022-08-04T10:17:43.620Z,33.55
2022-08-04T10:20:56.419Z,33.51
2022-08-04T10:23:56.755Z,33.46
2022-08-04T10:26:48.699Z,33.40
2022-08-04T10:29:22.528Z,33.31
2022-08-04T10:31:59.135Z,33.28
2022-08-04T10:34:29.925Z,33.46
2022-08-04T10:37:02.381Z,33.74
2022-08-04T10:40:10.686Z,34.01
2022-08-04T10:42:47.082Z,34.31
2022-08-04T10:45:25.144Z,34.47
2022-08-04T10:48:07.305Z,34.89
2022-08-04T10:50:43.039Z,35.10
2022-08-04T10:53:20.376Z,35.44
2022-08-04T10:56:06.324Z,35.76
2022-08-04T10:58:47.835Z,35.81
2022-08-04T11:02:00.007Z,36.04
2022-08-04T11:04:15.871Z,36.39
2022-08-04T11:06:56.385Z,36.55
2022-08-04T11:09:23.106Z,36.82
2022-08-04T11:12:15.606Z,37.25
2022-08-04T11:14:58.269Z,37.59
2022-08-04T11:17:29.964Z,37.72
2022-08-04T11:20:34.146Z,37.60
2022-08-04T11:23:05.736Z,37.90
2022-08-04T11:25:56.240Z,37.99
2022-08-04T11:28:37.246Z,38.17
2022-08-04T11:31:07.857Z,38.45
2022-08-04T11:33:58.585Z,38.23
2022-08-04T11:37:00.748Z,37.87
2022-08-04T11:39:42.404Z,37.89
2022-08-04T11:42:26.409Z,38.17
2022-08-04T11:45:05.799Z,37.99
2022-08-04T11:48:00.628Z,37.99
2022-08-04T11:50:45.068Z,37.95
2022-08-04T11:53:19.251Z,37.87
2022-08-04T11:56:06.908Z,37.67
2022-08-04T11:58:35.594Z,37.49
2022-08-04T12:01:21.793Z,37.38
2022-08-04T12:04:13.493Z,37.20
2022-08-04T12:07:29.998Z,37.13
2022-08-04T12:10:12.645Z,36.92
2022-08-04T12:12:46.259Z,36.87
2022-08-04T12:15:31.008Z,36.77
2022-08-04T12:18:16.013Z,36.66
2022-08-04T12:20:49.550Z,36.52
2022-08-04T12:23:23.148Z,36.33
2022-08-04T12:25:54.599Z,36.17
2022-08-04T12:31:40.327Z,35.93
2022-08-04T12:34:15.890Z,35.82
2022-08-04T12:36:58.839Z,35.70
2022-08-04T12:39:27.433Z,35.64
2022-08-04T12:42:03.252Z,35.53
2022-08-04T12:44:39.413Z,35.51
2022-08-04T12:47:27.132Z,35.47
2022-08-04T12:50:00.877Z,35.43
2022-08-04T12:55:20.266Z,35.44
2022-08-04T12:57:49.448Z,35.49
2022-08-04T13:00:30.550Z,35.53
2022-08-04T13:03:06.278Z,35.52
2022-08-04T13:05:38.885Z,35.54
2022-08-04T13:08:07.101Z,35.55
2022-08-04T13:10:39.399Z,35.51
2022-08-04T13:13:11.597Z,35.47
2022-08-04T13:15:47.660Z,35.45
2022-08-04T13:18:29.293Z,35.40
2022-08-04T13:21:20.414Z,35.34
2022-08-04T13:24:09.790Z,35.26
2022-08-04T13:26:43.349Z,35.10
2022-08-04T13:29:22.011Z,34.96
2022-08-04T13:32:09.901Z,34.81
2022-08-04T13:34:40.178Z,34.74
2022-08-04T13:37:08.388Z,34.70
2022-08-04T13:39:36.035Z,34.70
2022-08-04T13:42:08.265Z,34.80
2022-08-04T13:44:38.329Z,34.87
2022-08-04T13:47:16.699Z,34.93
2022-08-04T13:50:15.625Z,35.03
2022-08-04T13:52:44.027Z,35.07
2022-08-04T13:55:29.961Z,35.23
2022-08-04T13:58:01.116Z,35.60
2022-08-04T14:00:40.255Z,36.03
2022-08-04T14:03:23.281Z,36.20
2022-08-04T14:06:14.581Z,36.48
2022-08-04T14:08:51.054Z,36.50
2022-08-04T14:12:06.521Z,36.34
2022-08-04T14:14:28.669Z,36.06
2022-08-04T14:17:19.909Z,35.84
2022-08-04T14:19:50.094Z,35.81
2022-08-04T14:22:25.644Z,36.13
2022-08-04T14:25:15.520Z,36.33
2022-08-04T14:27:54.774Z,36.22
2022-08-04T14:30:25.349Z,36.15
2022-08-04T14:34:01.616Z,36.06
2022-08-04T14:35:59.509Z,35.79
2022-08-04T14:38:56.439Z,35.57
2022-08-04T14:41:29.754Z,35.29
2022-08-04T14:43:58.632Z,35.18
2022-08-04T14:46:30.468Z,35.12
2022-08-04T14:49:12.021Z,35.17
2022-08-04T14:51:41.869Z,35.20
2022-08-04T14:54:15.643Z,35.54
2022-08-04T14:56:53.117Z,35.87
2022-08-04T14:59:19.721Z,36.27
2022-08-04T15:02:00.913Z,36.59
2022-08-04T15:04:31.382Z,36.76
2022-08-04T15:06:58.775Z,37.09
2022-08-04T15:09:25.565Z,37.40
2022-08-04T15:11:52.215Z,37.65
2022-08-04T15:14:36.477Z,37.92
2022-08-04T15:17:12.184Z,38.22
2022-08-04T15:19:55.968Z,38.62
2022-08-04T15:22:22.675Z,39.00
2022-08-04T15:24:55.253Z,39.28
2022-08-04T15:27:26.583Z,39.56
2022-08-04T15:30:00.645Z,39.75
2022-08-04T15:32:33.041Z,39.93
2022-08-04T15:35:35.121Z,40.12
2022-08-04T15:38:09.187Z,40.34
2022-08-04T15:40:56.299Z,40.48
2022-08-04T15:43:41.328Z,40.68
2022-08-04T15:46:42.652Z,40.74
2022-08-04T15:48:54.225Z,40.73
2022-08-04T15:51:31.767Z,40.52
2022-08-04T15:54:23.442Z,40.27
2022-08-04T15:57:02.001Z,40.01
2022-08-04T16:00:00.082Z,39.86
2022-08-04T16:02:32.412Z,39.62
2022-08-04T16:05:18.045Z,39.43
2022-08-04T16:08:08.405Z,39.22
2022-08-04T16:10:36.114Z,38.97
2022-08-04T16:13:08.637Z,38.93
2022-08-04T16:15:48.879Z,38.62
2022-08-04T16:18:30.547Z,38.36
2022-08-04T16:20:59.332Z,37.99
2022-08-04T16:23:55.118Z,37.50
2022-08-04T16:26:45.313Z,36.99
2022-08-04T16:29:32.467Z,36.59
2022-08-04T16:32:20.384Z,36.22
2022-08-04T16:34:55.649Z,36.04
2022-08-04T16:37:37.826Z,35.78
2022-08-04T16:40:34.590Z,35.54
2022-08-04T16:43:13.862Z,35.27
2022-08-04T16:45:54.758Z,35.05
2022-08-04T16:48:26.935Z,34.76
2022-08-04T16:51:31.454Z,34.32
2022-08-04T16:54:05.487Z,33.89
2022-08-04T16:56:34.737Z,33.61
2022-08-04T16:59:12.859Z,33.45
2022-08-04T17:01:51.025Z,33.16
2022-08-04T17:04:17.976Z,32.81
2022-08-04T17:06:48.522Z,32.60
2022-08-04T17:09:17.220Z,32.28
2022-08-04T17:11:45.144Z,32.10
2022-08-04T17:14:12.023Z,31.96
2022-08-04T17:16:41.551Z,31.77
2022-08-04T17:19:20.425Z,31.60
2022-08-04T17:21:58.864Z,31.54
2022-08-04T17:24:29.212Z,31.38
2022-08-04T17:26:57.750Z,31.26
2022-08-04T17:32:17.284Z,31.04
2022-08-04T17:34:48.556Z,31.01
2022-08-04T17:40:22.730Z,30.88
2022-08-04T17:44:02.950Z,30.81
2022-08-04T17:46:28.450Z,30.70
2022-08-04T17:49:10.044Z,30.58
2022-08-04T17:52:05.047Z,30.52
2022-08-04T17:54:39.040Z,30.38
2022-08-04T17:57:20.639Z,30.35
2022-08-04T18:00:00.026Z,30.26
2022-08-04T18:02:33.029Z,30.14
2022-08-04T18:05:06.888Z,30.04
2022-08-04T18:08:37.749Z,29.98
2022-08-04T18:10:55.182Z,29.91
2022-08-04T18:13:27.183Z,29.86
2022-08-04T18:16:04.350Z,29.82
2022-08-04T18:18:31.012Z,29.79
2022-08-04T18:20:59.720Z,29.77
2022-08-04T18:23:31.437Z,29.75
2022-08-04T18:25:58.731Z,29.72
2022-08-04T18:28:26.645Z,29.70
2022-08-04T18:30:55.234Z,29.68
2022-08-04T18:33:39.489Z,29.69
2022-08-04T18:36:34.732Z,29.63
2022-08-04T18:38:55.716Z,29.57
2022-08-04T18:41:25.066Z,29.56
2022-08-04T18:43:56.036Z,29.52
2022-08-04T18:46:26.966Z,29.47
2022-08-04T18:48:53.853Z,29.42
2022-08-04T18:51:23.548Z,29.39
2022-08-04T18:53:59.091Z,29.34
2022-08-04T18:56:29.969Z,29.26
2022-08-04T18:59:01.217Z,29.18
2022-08-04T19:01:30.120Z,29.12
2022-08-04T19:04:33.587Z,29.07
2022-08-04T19:07:28.831Z,29.01
2022-08-04T19:09:52.214Z,28.96
2022-08-04T19:12:26.816Z,28.91
2022-08-04T19:15:08.126Z,28.87
2022-08-04T19:17:53.456Z,28.84
2022-08-04T19:20:26.322Z,28.80
2022-08-04T19:26:02.783Z,28.71
2022-08-04T19:28:31.699Z,28.64
2022-08-04T19:31:01.461Z,28.60
2022-08-04T19:33:55.227Z,28.57
2022-08-04T19:36:17.051Z,28.52
2022-08-04T19:39:04.652Z,28.49
2022-08-04T19:42:04.445Z,28.44
2022-08-04T19:44:24.900Z,28.41
2022-08-04T19:46:56.025Z,28.39
2022-08-04T19:50:05.198Z,28.36
2022-08-04T19:52:13.545Z,28.30
2022-08-04T19:54:41.210Z,28.25
2022-08-04T19:57:08.134Z,28.18
2022-08-04T19:59:35.500Z,28.11
2022-08-04T20:02:01.969Z,28.00
2022-08-04T20:04:28.506Z,27.97
2022-08-04T20:06:57.806Z,27.89
2022-08-04T20:09:27.073Z,27.81
2022-08-04T20:11:57.748Z,27.72
2022-08-04T20:14:32.569Z,27.66
2022-08-04T20:17:01.434Z,27.58
2022-08-04T20:19:27.900Z,27.49
2022-08-04T20:21:56.932Z,27.38
2022-08-04T20:24:39.860Z,27.29
2022-08-04T20:27:21.960Z,27.19
2022-08-04T20:29:50.592Z,27.09
2022-08-04T20:32:22.577Z,26.99
2022-08-04T20:34:51.423Z,26.88
2022-08-04T20:37:19.289Z,26.80
2022-08-04T20:39:54.641Z,26.73
2022-08-04T20:42:27.006Z,26.64
2022-08-04T20:44:55.451Z,26.56
2022-08-04T20:47:22.121Z,26.47
2022-08-04T20:49:49.071Z,26.41
2022-08-04T20:52:20.361Z,26.32
2022-08-04T20:54:48.408Z,26.22
2022-08-04T20:57:16.799Z,26.14
2022-08-04T20:59:57.771Z,26.08
2022-08-04T21:02:27.085Z,26.01
2022-08-04T21:04:53.699Z,25.99
2022-08-04T21:07:21.817Z,25.94
2022-08-04T21:09:50.889Z,25.87
2022-08-04T21:12:35.744Z,25.80
2022-08-04T21:15:14.478Z,25.74
2022-08-04T21:17:57.959Z,25.68
2022-08-04T21:20:30.092Z,25.63
2022-08-04T21:23:01.632Z,25.62
2022-08-04T21:25:28.912Z,25.57
2022-08-04T21:27:55.550Z,25.55
2022-08-04T21:30:26.587Z,25.53
2022-08-04T21:35:40.589Z,25.55
2022-08-04T21:40:54.613Z,25.73
2022-08-04T21:43:23.561Z,25.80
2022-08-04T21:45:54.856Z,25.85
2022-08-04T21:48:21.381Z,25.92
2022-08-04T21:50:50.472Z,25.98
2022-08-04T21:53:19.856Z,26.00
2022-08-04T21:56:06.816Z,26.04
2022-08-04T21:58:34.419Z,26.08
2022-08-04T22:01:00.888Z,26.07
2022-08-04T22:03:53.894Z,26.12
2022-08-04T22:06:28.211Z,26.14
2022-08-04T22:08:56.253Z,26.15
2022-08-04T22:11:26.034Z,26.15
2022-08-04T22:14:11.131Z,26.16
2022-08-04T22:16:39.793Z,26.13
2022-08-04T22:19:06.837Z,26.15
2022-08-04T22:21:39.208Z,26.12
2022-08-04T22:24:13.654Z,26.12
2022-08-04T22:26:40.810Z,26.11
2022-08-04T22:29:07.408Z,26.04
2022-08-04T22:31:56.360Z,26.01
2022-08-04T22:34:24.245Z,25.96
2022-08-04T22:36:50.862Z,25.92
2022-08-04T22:39:19.039Z,25.89
2022-08-04T22:41:48.895Z,25.90
2022-08-04T22:44:33.038Z,25.88
2022-08-04T22:46:59.587Z,25.86
2022-08-04T22:49:31.467Z,25.85
2022-08-04T22:51:58.556Z,25.87
2022-08-04T22:54:26.017Z,25.86
2022-08-04T22:56:55.196Z,25.84
2022-08-04T22:59:23.421Z,25.84
2022-08-04T23:01:59.180Z,25.85
2022-08-04T23:04:29.699Z,25.84
2022-08-04T23:06:56.265Z,25.83
2022-08-04T23:09:49.090Z,25.82
2022-08-04T23:12:27.385Z,25.77
2022-08-04T23:14:58.633Z,25.75
2022-08-04T23:17:27.295Z,25.75
2022-08-04T23:19:57.406Z,25.75
2022-08-04T23:22:41.187Z,25.75
2022-08-04T23:25:15.922Z,25.75
2022-08-04T23:27:50.997Z,25.75
2022-08-04T23:30:24.631Z,25.78
2022-08-04T23:32:56.532Z,25.76
2022-08-04T23:35:23.546Z,25.74
2022-08-04T23:37:57.769Z,25.66
2022-08-04T23:40:33.051Z,25.60
2022-08-04T23:43:12.186Z,25.45
2022-08-04T23:46:08.273Z,25.33
2022-08-04T23:48:36.818Z,25.22
2022-08-04T23:51:14.703Z,25.11
2022-08-04T23:54:02.037Z,24.95
2022-08-04T23:56:29.566Z,24.68
2022-08-04T23:58:56.315Z,24.64
